sensor_id;sensor_type;location;lat;lon;timestamp;P1;durP1;ratioP1;P2;durP2;ratioP2
57191;SDS011;43052;52.588;13.396;2023-03-01T12:10:13;5.57;;;3.72;;
57191;SDS011;43052;52.588;13.396;2023-03-01T12:12:52;6.45;;;3.80;;
57191;SDS011;43052;52.588;13.396;2023-03-01T12:18:30;5.43;;;3.50;;
57191;SDS011;43052;52.588;13.396;2023-03-01T12:21:29;6.28;;;3.80;;
57191;SDS011;43052;52.588;13.396;2023-03-01T12:26:38;7.05;;;3.72;;
57191;SDS011;43052;52.588;13.396;2023-03-01T12:29:26;6.45;;;4.03;;
57191;SDS011;43052;52.588;13.396;2023-03-01T12:40:33;6.10;;;3.13;;
57191;SDS011;43052;52.588;13.396;2023-03-01T12:43:17;6.20;;;3.50;;
57191;SDS011;43052;52.588;13.396;2023-03-01T12:45:48;4.78;;;3.00;;
57191;SDS011;43052;52.588;13.396;2023-03-01T12:48:36;4.38;;;2.70;;
57191;SDS011;43052;52.588;13.396;2023-03-01T12:51:08;5.72;;;3.42;;
57191;SDS011;43052;52.588;13.396;2023-03-01T12:53:40;5.63;;;3.08;;
57191;SDS011;43052;52.588;13.396;2023-03-01T12:56:37;4.30;;;2.75;;
57191;SDS011;43052;52.588;13.396;2023-03-01T13:02:09;3.97;;;2.50;;
57191;SDS011;43052;52.588;13.396;2023-03-01T13:07:29;4.97;;;2.88;;
57191;SDS011;43052;52.588;13.396;2023-03-01T13:12:45;5.93;;;3.05;;
57191;SDS011;43052;52.588;13.396;2023-03-01T13:17:52;6.72;;;2.75;;
57191;SDS011;43052;52.588;13.396;2023-03-01T13:20:20;5.60;;;2.97;;
57191;SDS011;43052;52.588;13.396;2023-03-01T13:22:49;3.47;;;2.45;;
57191;SDS011;43052;52.588;13.396;2023-03-01T13:25:26;3.88;;;2.47;;
57191;SDS011;43052;52.588;13.396;2023-03-01T13:27:51;4.78;;;2.55;;
57191;SDS011;43052;52.588;13.396;2023-03-01T13:31:01;5.90;;;3.05;;
57191;SDS011;43052;52.588;13.396;2023-03-01T13:35:54;5.73;;;2.47;;
57191;SDS011;43052;52.588;13.396;2023-03-01T13:41:10;5.13;;;2.50;;
57191;SDS011;43052;52.588;13.396;2023-03-01T13:43:37;3.83;;;2.13;;
57191;SDS011;43052;52.588;13.396;2023-03-01T13:48:50;4.82;;;2.50;;
57191;SDS011;43052;52.588;13.396;2023-03-01T13:51:20;4.22;;;2.53;;
57191;SDS011;43052;52.588;13.396;2023-03-01T13:53:48;4.38;;;2.50;;
57191;SDS011;43052;52.588;13.396;2023-03-01T13:56:18;3.90;;;2.42;;
57191;SDS011;43052;52.588;13.396;2023-03-01T13:58:52;5.30;;;2.60;;
57191;SDS011;43052;52.588;13.396;2023-03-01T14:01:30;5.35;;;2.47;;
57191;SDS011;43052;52.588;13.396;2023-03-01T14:04:00;4.78;;;2.88;;
57191;SDS011;43052;52.588;13.396;2023-03-01T14:06:35;4.20;;;2.42;;
57191;SDS011;43052;52.588;13.396;2023-03-01T14:09:14;5.75;;;2.40;;
57191;SDS011;43052;52.588;13.396;2023-03-01T14:11:59;4.95;;;2.67;;
57191;SDS011;43052;52.588;13.396;2023-03-01T14:14:42;4.15;;;2.33;;
57191;SDS011;43052;52.588;13.396;2023-03-01T14:17:16;5.30;;;2.50;;
57191;SDS011;43052;52.588;13.396;2023-03-01T14:19:54;6.32;;;3.10;;
57191;SDS011;43052;52.588;13.396;2023-03-01T14:22:23;3.67;;;2.30;;
57191;SDS011;43052;52.588;13.396;2023-03-01T14:24:53;5.97;;;2.30;;
57191;SDS011;43052;52.588;13.396;2023-03-01T14:27:21;5.22;;;2.60;;
57191;SDS011;43052;52.588;13.396;2023-03-01T14:29:54;3.38;;;1.95;;
57191;SDS011;43052;52.588;13.396;2023-03-01T14:32:23;4.38;;;1.95;;
57191;SDS011;43052;52.588;13.396;2023-03-01T14:34:51;4.38;;;2.22;;
57191;SDS011;43052;52.588;13.396;2023-03-01T14:37:21;5.65;;;3.70;;
57191;SDS011;43052;52.588;13.396;2023-03-01T14:39:47;7.60;;;3.60;;
57191;SDS011;43052;52.588;13.396;2023-03-01T14:42:13;6.40;;;3.90;;
57191;SDS011;43052;52.588;13.396;2023-03-01T14:44:40;5.63;;;2.95;;
57191;SDS011;43052;52.588;13.396;2023-03-01T14:47:30;4.72;;;2.80;;
57191;SDS011;43052;52.588;13.396;2023-03-01T14:50:43;5.45;;;3.30;;
57191;SDS011;43052;52.588;13.396;2023-03-01T14:52:51;5.00;;;2.70;;
57191;SDS011;43052;52.588;13.396;2023-03-01T14:55:21;4.82;;;2.45;;
57191;SDS011;43052;52.588;13.396;2023-03-01T14:57:51;4.47;;;2.50;;
57191;SDS011;43052;52.588;13.396;2023-03-01T15:00:19;4.90;;;2.90;;
57191;SDS011;43052;52.588;13.396;2023-03-01T15:02:47;5.00;;;2.90;;
57191;SDS011;43052;52.588;13.396;2023-03-01T15:05:15;4.45;;;2.53;;
57191;SDS011;43052;52.588;13.396;2023-03-01T15:07:50;6.40;;;3.70;;
57191;SDS011;43052;52.588;13.396;2023-03-01T15:10:19;5.60;;;2.78;;
57191;SDS011;43052;52.588;13.396;2023-03-01T15:12:46;4.30;;;2.63;;
57191;SDS011;43052;52.588;13.396;2023-03-01T15:17:53;4.90;;;2.60;;
57191;SDS011;43052;52.588;13.396;2023-03-01T15:20:20;2.97;;;2.00;;
57191;SDS011;43052;52.588;13.396;2023-03-01T15:22:50;6.45;;;3.42;;
57191;SDS011;43052;52.588;13.396;2023-03-01T15:25:16;7.22;;;3.05;;
57191;SDS011;43052;52.588;13.396;2023-03-01T15:27:47;4.80;;;2.95;;
57191;SDS011;43052;52.588;13.396;2023-03-01T15:30:22;6.50;;;2.88;;
57191;SDS011;43052;52.588;13.396;2023-03-01T15:35:53;5.07;;;2.67;;
57191;SDS011;43052;52.588;13.396;2023-03-01T15:40:51;5.40;;;2.70;;
57191;SDS011;43052;52.588;13.396;2023-03-01T15:43:37;4.63;;;2.67;;
57191;SDS011;43052;52.588;13.396;2023-03-01T15:46:24;5.90;;;3.13;;
57191;SDS011;43052;52.588;13.396;2023-03-01T15:48:53;6.07;;;2.90;;
57191;SDS011;43052;52.588;13.396;2023-03-01T15:51:29;5.43;;;3.05;;
57191;SDS011;43052;52.588;13.396;2023-03-01T15:54:03;6.57;;;3.13;;
57191;SDS011;43052;52.588;13.396;2023-03-01T15:56:36;4.03;;;2.78;;
57191;SDS011;43052;52.588;13.396;2023-03-01T15:59:02;6.28;;;3.20;;
57191;SDS011;43052;52.588;13.396;2023-03-01T16:01:27;6.60;;;3.90;;
57191;SDS011;43052;52.588;13.396;2023-03-01T16:03:53;8.02;;;4.13;;
57191;SDS011;43052;52.588;13.396;2023-03-01T16:06:19;5.10;;;3.20;;
57191;SDS011;43052;52.588;13.396;2023-03-01T16:08:48;7.15;;;3.78;;
57191;SDS011;43052;52.588;13.396;2023-03-01T16:11:15;5.88;;;3.65;;
57191;SDS011;43052;52.588;13.396;2023-03-01T16:13:42;6.00;;;3.40;;
57191;SDS011;43052;52.588;13.396;2023-03-01T16:16:09;6.53;;;3.60;;
57191;SDS011;43052;52.588;13.396;2023-03-01T16:18:37;7.82;;;3.70;;
57191;SDS011;43052;52.588;13.396;2023-03-01T16:21:03;8.38;;;4.15;;
57191;SDS011;43052;52.588;13.396;2023-03-01T16:23:28;7.05;;;3.97;;
57191;SDS011;43052;52.588;13.396;2023-03-01T16:25:54;7.80;;;3.90;;
57191;SDS011;43052;52.588;13.396;2023-03-01T16:28:19;7.75;;;4.40;;
57191;SDS011;43052;52.588;13.396;2023-03-01T16:30:47;9.15;;;4.47;;
57191;SDS011;43052;52.588;13.396;2023-03-01T16:33:13;10.07;;;5.13;;
57191;SDS011;43052;52.588;13.396;2023-03-01T16:35:39;10.50;;;5.45;;
57191;SDS011;43052;52.588;13.396;2023-03-01T16:38:05;11.23;;;6.22;;
57191;SDS011;43052;52.588;13.396;2023-03-01T16:40:30;10.73;;;6.00;;
57191;SDS011;43052;52.588;13.396;2023-03-01T16:42:56;10.23;;;6.05;;
57191;SDS011;43052;52.588;13.396;2023-03-01T16:45:25;13.45;;;6.40;;
57191;SDS011;43052;52.588;13.396;2023-03-01T16:47:51;12.05;;;7.13;;
57191;SDS011;43052;52.588;13.396;2023-03-01T16:50:17;13.32;;;6.10;;
57191;SDS011;43052;52.588;13.396;2023-03-01T16:52:42;15.82;;;7.88;;
57191;SDS011;43052;52.588;13.396;2023-03-01T16:55:08;11.20;;;6.60;;
57191;SDS011;43052;52.588;13.396;2023-03-01T16:57:34;15.82;;;7.70;;
57191;SDS011;43052;52.588;13.396;2023-03-01T17:00:00;13.70;;;8.30;;
57191;SDS011;43052;52.588;13.396;2023-03-01T17:02:33;16.05;;;9.57;;
57191;SDS011;43052;52.588;13.396;2023-03-01T17:04:59;16.30;;;9.88;;
57191;SDS011;43052;52.588;13.396;2023-03-01T17:07:25;16.38;;;9.25;;
57191;SDS011;43052;52.588;13.396;2023-03-01T17:09:50;18.23;;;11.20;;
57191;SDS011;43052;52.588;13.396;2023-03-01T17:12:15;16.20;;;9.73;;
57191;SDS011;43052;52.588;13.396;2023-03-01T17:14:41;17.38;;;9.77;;
57191;SDS011;43052;52.588;13.396;2023-03-01T17:17:10;18.08;;;10.88;;
57191;SDS011;43052;52.588;13.396;2023-03-01T17:19:36;18.30;;;10.57;;
57191;SDS011;43052;52.588;13.396;2023-03-01T17:22:06;24.65;;;13.82;;
57191;SDS011;43052;52.588;13.396;2023-03-01T17:24:36;25.88;;;12.25;;
57191;SDS011;43052;52.588;13.396;2023-03-01T17:27:02;19.27;;;12.13;;
57191;SDS011;43052;52.588;13.396;2023-03-01T17:29:28;22.65;;;11.40;;
57191;SDS011;43052;52.588;13.396;2023-03-01T17:31:54;18.40;;;9.90;;
57191;SDS011;43052;52.588;13.396;2023-03-01T17:34:20;17.58;;;11.57;;
57191;SDS011;43052;52.588;13.396;2023-03-01T17:36:46;18.27;;;9.77;;
57191;SDS011;43052;52.588;13.396;2023-03-01T17:39:14;19.63;;;12.32;;
57191;SDS011;43052;52.588;13.396;2023-03-01T17:41:40;18.85;;;12.38;;
57191;SDS011;43052;52.588;13.396;2023-03-01T17:44:07;18.25;;;11.85;;
57191;SDS011;43052;52.588;13.396;2023-03-01T17:46:33;20.25;;;10.88;;
57191;SDS011;43052;52.588;13.396;2023-03-01T17:48:58;17.33;;;10.55;;
57191;SDS011;43052;52.588;13.396;2023-03-01T17:51:23;20.67;;;11.55;;
57191;SDS011;43052;52.588;13.396;2023-03-01T17:53:49;19.90;;;11.60;;
57191;SDS011;43052;52.588;13.396;2023-03-01T17:56:14;25.05;;;12.02;;
57191;SDS011;43052;52.588;13.396;2023-03-01T17:58:40;22.23;;;12.60;;
57191;SDS011;43052;52.588;13.396;2023-03-01T18:01:10;21.42;;;13.27;;
57191;SDS011;43052;52.588;13.396;2023-03-01T18:03:37;23.17;;;12.68;;
57191;SDS011;43052;52.588;13.396;2023-03-01T18:06:11;21.27;;;12.80;;
57191;SDS011;43052;52.588;13.396;2023-03-01T18:08:39;23.35;;;12.60;;
57191;SDS011;43052;52.588;13.396;2023-03-01T18:11:04;23.10;;;15.20;;
57191;SDS011;43052;52.588;13.396;2023-03-01T18:13:29;24.15;;;15.02;;
57191;SDS011;43052;52.588;13.396;2023-03-01T18:15:54;22.95;;;13.07;;
57191;SDS011;43052;52.588;13.396;2023-03-01T18:18:25;24.02;;;13.05;;
57191;SDS011;43052;52.588;13.396;2023-03-01T18:20:54;22.05;;;15.18;;
57191;SDS011;43052;52.588;13.396;2023-03-01T18:23:21;26.17;;;16.05;;
57191;SDS011;43052;52.588;13.396;2023-03-01T18:25:49;20.90;;;13.85;;
57191;SDS011;43052;52.588;13.396;2023-03-01T18:28:16;26.88;;;13.60;;
57191;SDS011;43052;52.588;13.396;2023-03-01T18:30:42;25.15;;;16.27;;
57191;SDS011;43052;52.588;13.396;2023-03-01T18:33:07;24.48;;;13.68;;
57191;SDS011;43052;52.588;13.396;2023-03-01T18:35:36;24.13;;;14.65;;
57191;SDS011;43052;52.588;13.396;2023-03-01T18:38:03;23.60;;;15.70;;
57191;SDS011;43052;52.588;13.396;2023-03-01T18:40:29;22.83;;;14.23;;
57191;SDS011;43052;52.588;13.396;2023-03-01T18:42:55;23.85;;;15.88;;
57191;SDS011;43052;52.588;13.396;2023-03-01T18:45:21;25.00;;;16.67;;
57191;SDS011;43052;52.588;13.396;2023-03-01T18:47:47;25.88;;;17.33;;
57191;SDS011;43052;52.588;13.396;2023-03-01T18:50:13;23.08;;;17.00;;
57191;SDS011;43052;52.588;13.396;2023-03-01T18:52:39;21.92;;;14.63;;
57191;SDS011;43052;52.588;13.396;2023-03-01T18:55:04;25.25;;;16.23;;
57191;SDS011;43052;52.588;13.396;2023-03-01T18:57:30;23.35;;;17.05;;
57191;SDS011;43052;52.588;13.396;2023-03-01T18:59:55;29.02;;;18.30;;
57191;SDS011;43052;52.588;13.396;2023-03-01T19:02:20;27.70;;;19.13;;
57191;SDS011;43052;52.588;13.396;2023-03-01T19:04:48;20.88;;;14.32;;
57191;SDS011;43052;52.588;13.396;2023-03-01T19:07:14;26.27;;;20.13;;
57191;SDS011;43052;52.588;13.396;2023-03-01T19:09:39;35.35;;;23.65;;
57191;SDS011;43052;52.588;13.396;2023-03-01T19:12:05;29.00;;;19.50;;
57191;SDS011;43052;52.588;13.396;2023-03-01T19:14:30;26.02;;;18.42;;
57191;SDS011;43052;52.588;13.396;2023-03-01T19:16:55;29.25;;;18.50;;
57191;SDS011;43052;52.588;13.396;2023-03-01T19:19:20;27.23;;;17.73;;
57191;SDS011;43052;52.588;13.396;2023-03-01T19:21:46;37.00;;;24.77;;
57191;SDS011;43052;52.588;13.396;2023-03-01T19:24:11;32.03;;;19.67;;
57191;SDS011;43052;52.588;13.396;2023-03-01T19:26:36;29.98;;;20.33;;
57191;SDS011;43052;52.588;13.396;2023-03-01T19:29:05;28.55;;;20.10;;
57191;SDS011;43052;52.588;13.396;2023-03-01T19:31:31;43.03;;;26.30;;
57191;SDS011;43052;52.588;13.396;2023-03-01T19:33:56;36.95;;;25.98;;
57191;SDS011;43052;52.588;13.396;2023-03-01T19:36:22;35.42;;;22.95;;
57191;SDS011;43052;52.588;13.396;2023-03-01T19:38:56;37.80;;;26.42;;
57191;SDS011;43052;52.588;13.396;2023-03-01T19:41:21;36.72;;;24.08;;
57191;SDS011;43052;52.588;13.396;2023-03-01T19:43:46;39.97;;;24.88;;
57191;SDS011;43052;52.588;13.396;2023-03-01T19:46:12;39.33;;;26.85;;
57191;SDS011;43052;52.588;13.396;2023-03-01T19:48:38;40.33;;;25.58;;
57191;SDS011;43052;52.588;13.396;2023-03-01T19:51:04;38.08;;;24.52;;
57191;SDS011;43052;52.588;13.396;2023-03-01T19:53:30;37.83;;;23.48;;
57191;SDS011;43052;52.588;13.396;2023-03-01T19:55:56;31.33;;;22.90;;
57191;SDS011;43052;52.588;13.396;2023-03-01T19:58:25;37.72;;;24.48;;
57191;SDS011;43052;52.588;13.396;2023-03-01T20:00:54;36.15;;;24.95;;
57191;SDS011;43052;52.588;13.396;2023-03-01T20:03:32;31.50;;;23.77;;
57191;SDS011;43052;52.588;13.396;2023-03-01T20:05:59;39.40;;;24.25;;
57191;SDS011;43052;52.588;13.396;2023-03-01T20:08:28;37.17;;;26.30;;
57191;SDS011;43052;52.588;13.396;2023-03-01T20:11:00;39.63;;;27.17;;
57191;SDS011;43052;52.588;13.396;2023-03-01T20:13:29;42.00;;;29.23;;
57191;SDS011;43052;52.588;13.396;2023-03-01T20:15:54;44.22;;;30.30;;
57191;SDS011;43052;52.588;13.396;2023-03-01T20:18:20;45.92;;;31.10;;
57191;SDS011;43052;52.588;13.396;2023-03-01T20:20:48;50.42;;;32.10;;
57191;SDS011;43052;52.588;13.396;2023-03-01T20:23:14;54.03;;;35.20;;
57191;SDS011;43052;52.588;13.396;2023-03-01T20:25:40;48.92;;;31.00;;
57191;SDS011;43052;52.588;13.396;2023-03-01T20:28:05;45.97;;;31.50;;
57191;SDS011;43052;52.588;13.396;2023-03-01T20:30:30;47.03;;;30.10;;
57191;SDS011;43052;52.588;13.396;2023-03-01T20:32:56;46.60;;;31.23;;
57191;SDS011;43052;52.588;13.396;2023-03-01T20:35:21;50.45;;;33.55;;
57191;SDS011;43052;52.588;13.396;2023-03-01T20:37:47;53.75;;;37.17;;
57191;SDS011;43052;52.588;13.396;2023-03-01T20:40:16;54.88;;;37.65;;
57191;SDS011;43052;52.588;13.396;2023-03-01T20:42:42;55.85;;;39.20;;
57191;SDS011;43052;52.588;13.396;2023-03-01T20:45:08;48.95;;;34.17;;
57191;SDS011;43052;52.588;13.396;2023-03-01T20:47:33;54.17;;;36.90;;
57191;SDS011;43052;52.588;13.396;2023-03-01T20:49:58;49.83;;;34.28;;
57191;SDS011;43052;52.588;13.396;2023-03-01T20:52:25;48.75;;;33.42;;
57191;SDS011;43052;52.588;13.396;2023-03-01T20:54:51;120.20;;;71.78;;
57191;SDS011;43052;52.588;13.396;2023-03-01T20:57:16;64.22;;;42.90;;
57191;SDS011;43052;52.588;13.396;2023-03-01T20:59:41;68.18;;;47.97;;
57191;SDS011;43052;52.588;13.396;2023-03-01T21:02:06;73.18;;;49.67;;
57191;SDS011;43052;52.588;13.396;2023-03-01T21:04:33;76.18;;;54.92;;
57191;SDS011;43052;52.588;13.396;2023-03-01T21:06:59;83.03;;;57.88;;
57191;SDS011;43052;52.588;13.396;2023-03-01T21:09:24;89.85;;;59.90;;
57191;SDS011;43052;52.588;13.396;2023-03-01T21:11:49;89.75;;;61.10;;
57191;SDS011;43052;52.588;13.396;2023-03-01T21:14:14;93.85;;;65.22;;
57191;SDS011;43052;52.588;13.396;2023-03-01T21:16:41;93.38;;;64.38;;
57191;SDS011;43052;52.588;13.396;2023-03-01T21:19:09;95.65;;;68.78;;
57191;SDS011;43052;52.588;13.396;2023-03-01T21:21:34;103.22;;;68.85;;
57191;SDS011;43052;52.588;13.396;2023-03-01T21:24:00;96.95;;;67.07;;
57191;SDS011;43052;52.588;13.396;2023-03-01T21:26:26;97.70;;;66.25;;
57191;SDS011;43052;52.588;13.396;2023-03-01T21:28:55;96.32;;;68.35;;
57191;SDS011;43052;52.588;13.396;2023-03-01T21:31:26;103.93;;;70.15;;
57191;SDS011;43052;52.588;13.396;2023-03-01T21:33:53;107.05;;;72.40;;
57191;SDS011;43052;52.588;13.396;2023-03-01T21:36:21;113.78;;;73.60;;
57191;SDS011;43052;52.588;13.396;2023-03-01T21:38:48;98.63;;;68.72;;
57191;SDS011;43052;52.588;13.396;2023-03-01T21:41:15;105.35;;;67.80;;
57191;SDS011;43052;52.588;13.396;2023-03-01T21:43:43;97.15;;;65.40;;
57191;SDS011;43052;52.588;13.396;2023-03-01T21:46:10;104.07;;;69.53;;
57191;SDS011;43052;52.588;13.396;2023-03-01T21:48:38;104.10;;;73.75;;
57191;SDS011;43052;52.588;13.396;2023-03-01T21:51:05;112.45;;;75.88;;
57191;SDS011;43052;52.588;13.396;2023-03-01T21:53:31;107.72;;;71.35;;
57191;SDS011;43052;52.588;13.396;2023-03-01T21:55:57;108.28;;;72.88;;
57191;SDS011;43052;52.588;13.396;2023-03-01T21:58:23;111.13;;;69.80;;
57191;SDS011;43052;52.588;13.396;2023-03-01T22:00:49;109.15;;;70.85;;
57191;SDS011;43052;52.588;13.396;2023-03-01T22:03:15;110.63;;;74.00;;
57191;SDS011;43052;52.588;13.396;2023-03-01T22:05:40;108.30;;;71.43;;
57191;SDS011;43052;52.588;13.396;2023-03-01T22:08:06;107.70;;;71.05;;
57191;SDS011;43052;52.588;13.396;2023-03-01T22:10:32;107.95;;;70.30;;
57191;SDS011;43052;52.588;13.396;2023-03-01T22:12:59;101.90;;;65.97;;
57191;SDS011;43052;52.588;13.396;2023-03-01T22:15:25;98.03;;;64.10;;
57191;SDS011;43052;52.588;13.396;2023-03-01T22:17:51;94.25;;;61.00;;
57191;SDS011;43052;52.588;13.396;2023-03-01T22:20:17;95.13;;;61.88;;
57191;SDS011;43052;52.588;13.396;2023-03-01T22:22:43;88.70;;;60.45;;
57191;SDS011;43052;52.588;13.396;2023-03-01T22:25:08;86.95;;;57.55;;
57191;SDS011;43052;52.588;13.396;2023-03-01T22:27:35;91.93;;;61.60;;
57191;SDS011;43052;52.588;13.396;2023-03-01T22:30:03;87.40;;;61.47;;
57191;SDS011;43052;52.588;13.396;2023-03-01T22:32:32;93.63;;;63.25;;
57191;SDS011;43052;52.588;13.396;2023-03-01T22:34:58;86.28;;;57.40;;
57191;SDS011;43052;52.588;13.396;2023-03-01T22:37:23;75.75;;;51.30;;
57191;SDS011;43052;52.588;13.396;2023-03-01T22:39:48;75.38;;;51.50;;
57191;SDS011;43052;52.588;13.396;2023-03-01T22:42:14;75.20;;;51.78;;
57191;SDS011;43052;52.588;13.396;2023-03-01T22:44:39;74.88;;;50.03;;
57191;SDS011;43052;52.588;13.396;2023-03-01T22:47:05;70.88;;;47.55;;
57191;SDS011;43052;52.588;13.396;2023-03-01T22:49:30;64.70;;;45.33;;
57191;SDS011;43052;52.588;13.396;2023-03-01T22:51:56;64.30;;;43.63;;
57191;SDS011;43052;52.588;13.396;2023-03-01T22:54:21;59.30;;;41.70;;
57191;SDS011;43052;52.588;13.396;2023-03-01T22:56:47;61.35;;;42.53;;
57191;SDS011;43052;52.588;13.396;2023-03-01T22:59:13;67.18;;;46.60;;
57191;SDS011;43052;52.588;13.396;2023-03-01T23:01:40;68.60;;;46.72;;
57191;SDS011;43052;52.588;13.396;2023-03-01T23:04:06;70.70;;;48.10;;
57191;SDS011;43052;52.588;13.396;2023-03-01T23:06:32;79.65;;;49.47;;
57191;SDS011;43052;52.588;13.396;2023-03-01T23:08:59;75.10;;;48.83;;
57191;SDS011;43052;52.588;13.396;2023-03-01T23:11:25;59.80;;;40.95;;
57191;SDS011;43052;52.588;13.396;2023-03-01T23:13:52;51.20;;;35.33;;
57191;SDS011;43052;52.588;13.396;2023-03-01T23:16:18;51.13;;;35.10;;
57191;SDS011;43052;52.588;13.396;2023-03-01T23:18:49;50.28;;;33.60;;
57191;SDS011;43052;52.588;13.396;2023-03-01T23:21:16;46.75;;;33.10;;
57191;SDS011;43052;52.588;13.396;2023-03-01T23:23:43;45.47;;;30.77;;
57191;SDS011;43052;52.588;13.396;2023-03-01T23:26:10;44.35;;;29.15;;
57191;SDS011;43052;52.588;13.396;2023-03-01T23:28:36;39.00;;;27.35;;
57191;SDS011;43052;52.588;13.396;2023-03-01T23:31:05;39.58;;;28.02;;
57191;SDS011;43052;52.588;13.396;2023-03-01T23:33:32;47.38;;;28.85;;
57191;SDS011;43052;52.588;13.396;2023-03-01T23:36:03;46.13;;;27.17;;
57191;SDS011;43052;52.588;13.396;2023-03-01T23:38:28;34.30;;;22.02;;
57191;SDS011;43052;52.588;13.396;2023-03-01T23:40:53;30.30;;;20.08;;
57191;SDS011;43052;52.588;13.396;2023-03-01T23:43:18;39.40;;;24.70;;
57191;SDS011;43052;52.588;13.396;2023-03-01T23:45:44;32.45;;;19.90;;
57191;SDS011;43052;52.588;13.396;2023-03-01T23:48:10;29.33;;;20.50;;
57191;SDS011;43052;52.588;13.396;2023-03-01T23:50:36;35.70;;;22.60;;
57191;SDS011;43052;52.588;13.396;2023-03-01T23:53:05;31.10;;;20.90;;
